Time;durP1;ratioP1;P1;durP2;ratioP2;P2;SDS_P1;SDS_P2;PMS_P1;PMS_P2;Temp;Humidity;BMP_temperature;BMP_pressure;BME280_temperature;BME280_humidity;BME280_pressure;Samples;Min_cycle;Max_cycle;Signal;HPM_P1;HPM_P2
2021/06/01 00:01:23;;;;;;;3.80;3.37;;;;;;;13.74;53.31;96424.81;5002136;28;20444;-93
2021/06/01 00:03:50;;;;;;;3.50;3.10;;;;;;;13.74;53.26;96424.81;5016485;28;20529;-92
2021/06/01 00:06:17;;;;;;;4.13;3.07;;;;;;;13.78;52.95;96422.41;5004569;28;20524;-93
2021/06/01 00:08:44;;;;;;;3.13;2.83;;;;;;;13.73;53.44;96428.06;5001595;28;20433;-93
2021/06/01 00:11:12;;;;;;;3.60;3.30;;;;;;;13.78;53.18;96421.72;5000855;28;20484;-94
2021/06/01 00:13:39;;;;;;;4.40;3.50;;;;;;;13.79;52.94;96423.13;5003036;28;20568;-92
2021/06/01 00:16:06;;;;;;;3.90;3.30;;;;;;;13.78;52.86;96424.41;5012261;28;20433;-94
2021/06/01 00:18:33;;;;;;;4.70;3.27;;;;;;;13.76;52.99;96418.81;5018921;28;20437;-90
2021/06/01 00:21:01;;;;;;;4.60;2.97;;;;;;;13.75;53.30;96409.97;5019016;28;20427;-91
2021/06/01 00:23:27;;;;;;;4.30;2.87;;;;;;;13.69;53.22;96416.94;5018369;28;20472;-92
2021/06/01 00:25:54;;;;;;;3.60;3.30;;;;;;;13.69;53.26;96414.91;5018673;28;20490;-90
2021/06/01 00:28:20;;;;;;;2.87;2.67;;;;;;;13.68;53.22;96418.91;5018470;28;20464;-91
2021/06/01 00:30:47;;;;;;;3.70;2.70;;;;;;;13.68;53.21;96415.50;5013676;28;20411;-90
2021/06/01 00:33:13;;;;;;;4.57;3.37;;;;;;;13.71;53.14;96417.06;4998278;28;20445;-90
2021/06/01 00:35:40;;;;;;;4.10;3.40;;;;;;;13.57;53.38;96405.84;4998590;28;20453;-90
2021/06/01 00:38:07;;;;;;;3.30;2.73;;;;;;;13.61;53.53;96406.16;4998492;28;20452;-90
2021/06/01 00:40:34;;;;;;;3.03;2.67;;;;;;;13.57;53.74;96415.94;4998135;28;20420;-89
2021/06/01 00:43:00;;;;;;;3.70;2.93;;;;;;;13.51;53.76;96408.06;4998064;28;20498;-89
2021/06/01 00:45:27;;;;;;;3.90;3.03;;;;;;;13.50;53.75;96408.63;4999547;28;20510;-92
2021/06/01 00:47:54;;;;;;;3.73;3.07;;;;;;;13.46;53.86;96403.59;4999730;28;20448;-92
2021/06/01 00:50:21;;;;;;;2.93;2.67;;;;;;;13.45;53.98;96404.88;5000189;28;20453;-92
2021/06/01 00:52:48;;;;;;;4.67;3.47;;;;;;;13.43;54.13;96399.31;5000253;28;20428;-93
2021/06/01 00:55:16;;;;;;;3.43;3.00;;;;;;;13.37;54.12;96396.13;5000443;28;20472;-92
2021/06/01 00:57:42;;;;;;;3.50;3.20;;;;;;;13.46;53.85;96400.19;4999986;28;20419;-92
2021/06/01 01:00:21;;;;;;;3.57;2.80;;;;;;;13.39;54.18;96401.69;5000037;28;20529;-93
2021/06/01 01:02:47;;;;;;;4.23;2.63;;;;;;;13.42;54.10;96400.56;5000570;28;20419;-93
2021/06/01 01:05:15;;;;;;;3.70;2.70;;;;;;;13.34;54.67;96397.22;4999011;28;20886;-90
2021/06/01 01:07:47;;;;;;;2.93;2.63;;;;;;;13.33;54.46;96399.22;5015635;28;20443;-95
2021/06/01 01:10:15;;;;;;;3.10;2.73;;;;;;;13.35;54.46;96398.66;5018074;28;20424;-94
2021/06/01 01:12:47;;;;;;;3.00;2.80;;;;;;;13.31;54.68;96403.78;5018291;28;20412;-92
2021/06/01 01:15:14;;;;;;;3.17;2.87;;;;;;;13.29;54.81;96403.59;5001086;28;20510;-89
2021/06/01 01:17:46;;;;;;;4.83;3.57;;;;;;;13.24;55.13;96405.28;4997918;28;20908;-89
2021/06/01 01:20:23;;;;;;;3.17;2.83;;;;;;;13.25;55.27;96406.69;5001993;28;20420;-92
2021/06/01 01:22:53;;;;;;;5.43;3.00;;;;;;;13.16;55.51;96403.88;5004568;28;20435;-92
2021/06/01 01:25:27;;;;;;;3.33;2.90;;;;;;;13.14;55.71;96403.75;5003443;28;21046;-91
2021/06/01 01:28:04;;;;;;;3.70;3.40;;;;;;;13.08;55.52;96403.97;5001843;28;20531;-91
2021/06/01 01:30:37;;;;;;;4.07;3.10;;;;;;;13.06;56.04;96398.34;5002118;28;20433;-93
2021/06/01 01:33:18;;;;;;;6.20;3.40;;;;;;;12.98;56.13;96399.69;5002479;28;20440;-93
2021/06/01 01:35:46;;;;;;;4.00;3.43;;;;;;;13.05;56.22;96402.34;5006281;28;20425;-94
2021/06/01 01:38:14;;;;;;;5.83;3.20;;;;;;;12.93;56.33;96398.66;5004958;28;20431;-93
2021/06/01 01:40:41;;;;;;;4.90;3.67;;;;;;;12.90;56.30;96397.75;5003800;28;20490;-94
2021/06/01 01:43:14;;;;;;;3.10;2.80;;;;;;;12.92;56.35;96394.50;5002995;28;20445;-94
2021/06/01 01:45:43;;;;;;;3.83;3.30;;;;;;;12.94;56.38;96391.25;5003427;28;20412;-90
2021/06/01 01:51:11;;;;;;;4.23;2.70;;;;;;;13.01;56.25;96395.88;5014061;28;20430;-91
2021/06/01 01:53:41;;;;;;;3.17;2.87;;;;;;;12.88;56.76;96397.59;5021021;28;20422;-90
2021/06/01 01:56:08;;;;;;;3.90;3.50;;;;;;;12.79;56.85;96395.53;5021700;28;20413;-91
2021/06/01 01:58:35;;;;;;;3.47;2.90;;;;;;;12.76;56.73;96393.19;5016163;28;20414;-92
2021/06/01 02:01:02;;;;;;;4.03;2.80;;;;;;;12.74;56.78;96388.34;5000963;28;20452;-92
2021/06/01 02:03:29;;;;;;;3.87;3.40;;;;;;;12.78;56.79;96396.09;5001544;28;20433;-92
2021/06/01 02:05:56;;;;;;;3.67;3.10;;;;;;;12.78;56.71;96402.19;5001139;28;20505;-92
2021/06/01 02:08:23;;;;;;;3.20;2.80;;;;;;;12.68;56.70;96395.97;5001448;28;20437;-92
2021/06/01 02:10:49;;;;;;;3.10;2.80;;;;;;;12.68;57.10;96404.09;5001286;28;20528;-92
2021/06/01 02:13:15;;;;;;;3.97;3.50;;;;;;;12.72;57.28;96399.00;5001458;28;20487;-92
2021/06/01 02:15:42;;;;;;;4.60;3.40;;;;;;;12.62;57.28;96400.19;5001335;28;20434;-92
2021/06/01 02:18:08;;;;;;;4.63;3.23;;;;;;;12.62;57.14;96402.88;5000984;28;20520;-92
2021/06/01 02:20:34;;;;;;;4.10;3.40;;;;;;;12.58;57.05;96397.13;5002121;28;20417;-93
2021/06/01 02:25:56;;;;;;;3.83;3.17;;;;;;;12.50;57.41;96399.19;5001521;28;20431;-91
2021/06/01 02:28:28;;;;;;;3.70;2.93;;;;;;;12.49;57.72;96390.34;5000836;28;20441;-91
2021/06/01 02:30:59;;;;;;;4.83;3.20;;;;;;;12.50;57.61;96396.47;5001176;28;20415;-93
2021/06/01 02:33:26;;;;;;;5.13;3.53;;;;;;;12.55;57.43;96390.84;5002995;28;20464;-93
2021/06/01 02:35:54;;;;;;;9.80;3.10;;;;;;;12.53;57.28;96387.25;5002913;28;20423;-92
2021/06/01 02:38:21;;;;;;;3.20;2.90;;;;;;;12.51;57.24;96395.19;5001604;28;20420;-92
2021/06/01 02:40:51;;;;;;;4.27;3.17;;;;;;;12.56;57.29;96389.53;5000482;28;20455;-92
2021/06/01 02:43:19;;;;;;;3.40;3.10;;;;;;;12.52;57.51;96388.50;5000864;28;20437;-92
2021/06/01 02:45:45;;;;;;;3.53;3.17;;;;;;;12.54;57.31;96399.50;5001018;28;20505;-92
2021/06/01 02:48:13;;;;;;;3.43;3.13;;;;;;;12.48;57.61;96391.59;5000487;28;20499;-91
2021/06/01 02:50:41;;;;;;;3.93;3.00;;;;;;;12.48;57.40;96393.59;5000678;28;20435;-90
2021/06/01 02:53:09;;;;;;;3.17;2.87;;;;;;;12.40;57.82;96388.25;5000841;28;20822;-91
2021/06/01 02:55:35;;;;;;;4.80;3.23;;;;;;;12.34;58.01;96390.44;5001217;28;20472;-91
2021/06/01 02:58:06;;;;;;;4.00;2.83;;;;;;;12.38;57.90;96390.03;5001077;28;20441;-91
2021/06/01 03:00:35;;;;;;;5.30;3.60;;;;;;;12.24;58.59;96389.59;5001243;28;20411;-90
2021/06/01 03:03:04;;;;;;;3.50;3.03;;;;;;;12.16;59.49;96386.19;5001922;28;20412;-90
2021/06/01 03:05:31;;;;;;;4.47;3.13;;;;;;;12.14;59.25;96386.03;5001934;28;20567;-93
2021/06/01 03:08:09;;;;;;;4.10;3.17;;;;;;;12.07;60.15;96389.50;5002672;28;20625;-93
2021/06/01 03:10:35;;;;;;;3.37;3.07;;;;;;;12.04;60.31;96377.06;5003108;28;20507;-93
2021/06/01 03:13:01;;;;;;;4.80;4.33;;;;;;;11.96;60.18;96377.13;5003132;28;20448;-93
2021/06/01 03:15:29;;;;;;;5.03;3.23;;;;;;;11.96;60.04;96382.53;5002565;28;20488;-93
2021/06/01 03:17:55;;;;;;;5.43;3.70;;;;;;;11.93;60.44;96374.78;5003486;28;20480;-93
2021/06/01 03:20:21;;;;;;;6.30;3.97;;;;;;;11.96;60.23;96382.53;5003308;28;20507;-90
2021/06/01 03:22:48;;;;;;;4.73;3.53;;;;;;;11.95;60.30;96374.97;5001319;28;20467;-91
2021/06/01 03:25:14;;;;;;;7.20;3.37;;;;;;;11.96;60.52;96379.84;5001233;28;20487;-90
2021/06/01 03:27:40;;;;;;;3.63;3.30;;;;;;;11.93;60.40;96383.63;5000563;28;20575;-91
2021/06/01 03:30:08;;;;;;;5.40;3.50;;;;;;;11.90;60.37;96375.91;5000671;28;20435;-90
2021/06/01 03:32:36;;;;;;;6.30;3.80;;;;;;;12.00;60.67;96372.03;5001233;28;20449;-89
2021/06/01 03:35:03;;;;;;;4.60;3.33;;;;;;;12.08;60.55;96374.72;5001056;28;20487;-90
2021/06/01 03:37:29;;;;;;;5.60;3.57;;;;;;;12.38;59.43;96374.53;5000951;28;20487;-92
2021/06/01 03:39:55;;;;;;;4.00;3.47;;;;;;;12.62;58.50;96379.25;5001941;28;20471;-92
2021/06/01 03:42:21;;;;;;;7.40;4.00;;;;;;;13.02;57.33;96383.78;5001921;28;20430;-91
2021/06/01 03:44:47;;;;;;;6.53;3.20;;;;;;;13.39;56.74;96385.44;5015181;28;20499;-90
2021/06/01 03:47:14;;;;;;;6.70;4.03;;;;;;;13.73;55.37;96384.69;5009922;28;20812;-92
2021/06/01 03:49:41;;;;;;;3.67;3.23;;;;;;;14.14;53.46;96383.81;5000210;28;20465;-92
2021/06/01 03:52:09;;;;;;;4.60;3.70;;;;;;;14.46;53.08;96386.28;5000739;28;21020;-90
2021/06/01 03:54:35;;;;;;;5.30;3.60;;;;;;;14.74;52.11;96398.53;5000673;28;20450;-90
2021/06/01 03:57:02;;;;;;;4.90;3.13;;;;;;;15.02;50.98;96395.19;5000936;28;20445;-90
2021/06/01 03:59:28;;;;;;;5.23;3.47;;;;;;;15.21;50.43;96391.78;5000458;28;20437;-90
2021/06/01 04:01:55;;;;;;;3.50;3.20;;;;;;;15.52;49.82;96394.69;5000591;28;20440;-89
2021/06/01 04:04:21;;;;;;;5.87;3.70;;;;;;;15.89;48.67;96397.97;5000305;28;20501;-91
2021/06/01 04:06:49;;;;;;;4.43;3.80;;;;;;;16.12;48.07;96400.22;5000377;28;20485;-91
2021/06/01 04:09:16;;;;;;;4.80;3.23;;;;;;;16.47;47.50;96406.72;5000856;28;20453;-90
2021/06/01 04:11:42;;;;;;;4.37;3.10;;;;;;;16.58;47.34;96403.41;5000019;28;20429;-91
2021/06/01 04:14:09;;;;;;;6.07;3.67;;;;;;;16.69;46.46;96396.66;5001497;28;20465;-91
2021/06/01 04:16:35;;;;;;;5.90;3.50;;;;;;;17.22;45.45;96398.06;5001188;28;20495;-91
2021/06/01 04:19:01;;;;;;;3.57;3.27;;;;;;;17.48;44.35;96403.19;5001006;28;20433;-92
2021/06/01 04:21:27;;;;;;;2.93;2.63;;;;;;;17.65;43.91;96407.69;5000355;28;20433;-91
2021/06/01 04:23:55;;;;;;;4.50;3.60;;;;;;;17.87;44.37;96408.38;5000603;28;20528;-91
2021/06/01 04:26:21;;;;;;;4.53;3.33;;;;;;;18.17;43.52;96410.97;5001052;28;20545;-91
2021/06/01 04:28:47;;;;;;;6.47;3.60;;;;;;;18.29;42.62;96407.56;5000589;28;20552;-92
2021/06/01 04:31:14;;;;;;;9.50;4.13;;;;;;;18.38;43.27;96409.47;5000334;28;20515;-92
2021/06/01 04:33:40;;;;;;;5.73;4.33;;;;;;;18.67;42.54;96404.41;5000186;28;20525;-93
2021/06/01 04:36:06;;;;;;;4.10;3.70;;;;;;;18.46;42.43;96399.72;5000652;28;20453;-91
2021/06/01 04:38:33;;;;;;;5.90;4.10;;;;;;;18.34;43.21;96403.75;5000228;28;20539;-92
2021/06/01 04:41:00;;;;;;;4.40;4.00;;;;;;;18.84;42.38;96406.78;5000265;28;20520;-92
2021/06/01 04:43:27;;;;;;;4.20;3.70;;;;;;;19.29;41.09;96409.38;5001233;28;20429;-93
2021/06/01 04:45:53;;;;;;;4.77;3.60;;;;;;;19.84;39.88;96407.66;5000495;28;20445;-93
2021/06/01 04:48:19;;;;;;;3.77;3.17;;;;;;;19.57;40.02;96413.72;5000422;28;20503;-93
2021/06/01 04:50:45;;;;;;;4.20;3.80;;;;;;;19.57;40.20;96406.25;5000902;28;20501;-93
2021/06/01 04:53:11;;;;;;;4.30;3.90;;;;;;;19.56;40.34;96404.81;5000582;28;20434;-93
2021/06/01 04:55:37;;;;;;;8.07;3.80;;;;;;;19.71;40.02;96409.03;5017090;28;20453;-91
2021/06/01 04:58:05;;;;;;;5.20;3.90;;;;;;;19.92;39.83;96408.84;5018524;28;20437;-94
2021/06/01 05:00:32;;;;;;;5.50;3.10;;;;;;;20.33;39.18;96408.31;5018241;28;20472;-95
2021/06/01 05:02:58;;;;;;;3.37;2.93;;;;;;;20.48;38.64;96415.94;5018218;28;20452;-92
2021/06/01 05:05:24;;;;;;;4.13;3.73;;;;;;;20.15;39.50;96405.97;5018245;28;20477;-93
2021/06/01 05:07:51;;;;;;;4.93;3.93;;;;;;;20.38;39.20;96407.91;5018045;28;20480;-91
2021/06/01 05:10:18;;;;;;;3.90;3.03;;;;;;;20.69;38.34;96397.19;5017761;28;20428;-92
2021/06/01 05:12:44;;;;;;;5.10;3.83;;;;;;;20.54;38.58;96406.00;5005496;28;20440;-91
2021/06/01 05:15:13;;;;;;;4.30;3.73;;;;;;;21.02;37.62;96407.75;5002781;28;20849;-89
2021/06/01 05:17:40;;;;;;;4.10;3.37;;;;;;;20.66;37.62;96409.38;5001715;28;20437;-90
2021/06/01 05:20:08;;;;;;;6.27;3.87;;;;;;;20.94;38.08;96398.44;5001446;28;20445;-89
2021/06/01 05:22:34;;;;;;;3.77;3.37;;;;;;;21.01;37.79;96400.88;5001115;28;20457;-90
2021/06/01 05:25:01;;;;;;;3.83;3.43;;;;;;;20.88;36.99;96398.84;5000747;28;20468;-90
2021/06/01 05:27:30;;;;;;;3.23;3.03;;;;;;;20.93;37.38;96400.44;5017130;28;20469;-91
2021/06/01 05:29:59;;;;;;;7.80;3.57;;;;;;;20.99;37.98;96406.25;5017583;28;20456;-91
2021/06/01 05:35:20;;;;;;;4.10;3.47;;;;;;;21.20;36.78;96403.22;5017157;28;20469;-90
2021/06/01 05:37:46;;;;;;;4.30;3.47;;;;;;;21.41;36.77;96406.97;5003992;28;20448;-92
2021/06/01 05:40:14;;;;;;;4.80;3.30;;;;;;;21.02;37.08;96402.28;5000999;28;20524;-93
2021/06/01 05:42:40;;;;;;;4.70;3.70;;;;;;;21.46;36.77;96401.03;5002440;28;20470;-92
2021/06/01 05:45:07;;;;;;;3.50;3.20;;;;;;;21.56;36.83;96400.81;5000639;28;20496;-92
2021/06/01 05:47:35;;;;;;;4.80;3.90;;;;;;;21.89;35.94;96403.81;5003572;28;20552;-92
2021/06/01 05:50:02;;;;;;;3.90;3.53;;;;;;;21.80;35.74;96402.00;5001345;28;20958;-91
2021/06/01 05:52:29;;;;;;;5.27;3.70;;;;;;;21.64;36.48;96396.44;5001007;28;20453;-90
2021/06/01 05:54:55;;;;;;;3.97;3.57;;;;;;;21.55;36.59;96391.19;5001478;28;20531;-90
2021/06/01 05:57:21;;;;;;;4.10;3.67;;;;;;;21.23;37.05;96398.56;5001781;28;20444;-90
2021/06/01 05:59:48;;;;;;;3.90;3.57;;;;;;;20.38;38.53;96396.94;5001502;28;20445;-90
2021/06/01 06:02:15;;;;;;;4.80;3.27;;;;;;;20.67;38.14;96399.84;5000393;28;20441;-92
2021/06/01 06:04:42;;;;;;;4.30;3.53;;;;;;;21.09;36.84;96397.84;5000661;28;20473;-92
2021/06/01 06:07:08;;;;;;;4.30;2.87;;;;;;;21.13;37.07;96409.03;5005633;28;20483;-93
2021/06/01 06:09:34;;;;;;;5.03;4.03;;;;;;;21.29;36.79;96398.84;5007727;28;20464;-92
2021/06/01 06:12:01;;;;;;;3.07;2.87;;;;;;;20.74;37.22;96398.81;5012102;28;20468;-92
2021/06/01 06:14:27;;;;;;;3.50;3.20;;;;;;;20.65;37.64;96390.78;5007720;28;20460;-90
2021/06/01 06:16:56;;;;;;;4.20;3.80;;;;;;;20.65;37.95;96399.72;5007180;28;20444;-90
2021/06/01 06:19:23;;;;;;;4.83;3.10;;;;;;;20.56;38.04;96397.16;5010802;28;20433;-92
2021/06/01 06:21:50;;;;;;;4.00;3.00;;;;;;;20.59;38.37;96404.19;5014503;28;20496;-92
2021/06/01 06:24:16;;;;;;;3.73;3.33;;;;;;;20.43;38.40;96397.84;5020207;28;20457;-90
2021/06/01 06:26:45;;;;;;;6.10;3.17;;;;;;;20.15;38.92;96400.50;5019311;28;20524;-89
2021/06/01 06:29:11;;;;;;;6.57;4.00;;;;;;;20.11;39.79;96394.09;5017257;28;20509;-91
2021/06/01 06:47:24;;;;;;;4.43;3.20;;;;;;;21.55;37.46;96407.66;5026111;28;20996;-92
2021/06/01 06:49:51;;;;;;;3.60;3.10;;;;;;;22.04;36.40;96403.16;5026309;28;20451;-93
2021/06/01 06:52:17;;;;;;;4.77;3.47;;;;;;;21.95;36.70;96397.88;5027789;28;20818;-93
2021/06/01 06:54:44;;;;;;;4.60;3.13;;;;;;;21.46;37.48;96409.28;5026780;28;20491;-92
2021/06/01 06:57:10;;;;;;;3.90;3.10;;;;;;;21.55;36.41;96402.16;5025304;28;20448;-92
2021/06/01 06:59:36;;;;;;;2.93;2.63;;;;;;;21.69;37.12;96397.34;5025100;28;20444;-91
2021/06/01 07:02:03;;;;;;;5.73;4.20;;;;;;;21.42;37.13;96402.91;5023544;28;20448;-91
2021/06/01 07:04:32;;;;;;;4.43;3.63;;;;;;;21.73;37.03;96395.50;5025420;28;20460;-92
2021/06/01 07:06:59;;;;;;;6.40;3.53;;;;;;;20.89;38.36;96396.81;5026430;28;20487;-92
2021/06/01 07:09:25;;;;;;;6.03;4.53;;;;;;;21.18;38.23;96396.91;5026183;28;20450;-92
2021/06/01 07:11:51;;;;;;;8.70;4.47;;;;;;;20.87;38.15;96397.41;5028380;28;20491;-92
2021/06/01 07:14:32;;;;;;;4.73;3.90;;;;;;;20.39;39.02;96400.41;5026275;28;20463;-93
2021/06/01 07:16:58;;;;;;;4.70;3.77;;;;;;;20.83;38.74;96392.41;5025766;28;20428;-92
2021/06/01 07:19:24;;;;;;;5.00;3.90;;;;;;;20.73;38.55;96396.69;5027764;28;20963;-94
2021/06/01 07:21:52;;;;;;;5.30;3.60;;;;;;;20.39;38.76;96401.13;5029404;28;20504;-93
2021/06/01 07:24:18;;;;;;;8.80;3.77;;;;;;;20.62;38.88;96395.44;5030802;28;20523;-91
2021/06/01 07:26:44;;;;;;;3.60;3.30;;;;;;;20.69;38.71;96401.97;5038527;28;20536;-91
2021/06/01 07:29:10;;;;;;;4.93;4.17;;;;;;;20.45;39.28;96392.50;5038371;28;20460;-90
2021/06/01 07:31:36;;;;;;;4.13;3.37;;;;;;;20.52;39.69;96394.94;5033961;28;20483;-92
2021/06/01 07:34:02;;;;;;;4.73;3.40;;;;;;;20.92;38.92;96393.56;5023635;28;20559;-92
2021/06/01 07:36:28;;;;;;;4.77;3.87;;;;;;;20.95;38.80;96392.34;5023983;28;20495;-92
2021/06/01 07:38:56;;;;;;;5.60;3.40;;;;;;;21.27;38.33;96385.72;5025180;28;20518;-92
2021/06/01 07:41:22;;;;;;;5.63;3.23;;;;;;;20.65;38.75;96380.53;5023657;28;20511;-92
2021/06/01 07:43:48;;;;;;;5.70;3.90;;;;;;;21.06;38.38;96383.28;5025590;28;20535;-93
2021/06/01 07:46:14;;;;;;;4.93;3.40;;;;;;;21.43;38.12;96382.34;5022902;28;20452;-93
2021/06/01 07:48:40;;;;;;;3.60;3.03;;;;;;;21.24;37.03;96375.25;5022961;28;20444;-94
2021/06/01 07:51:11;;;;;;;4.10;3.80;;;;;;;20.72;37.03;96376.06;5023266;28;20471;-93
2021/06/01 07:53:37;;;;;;;3.90;3.50;;;;;;;20.77;36.76;96377.69;5027801;28;20985;-92
2021/06/01 07:56:07;;;;;;;3.40;3.10;;;;;;;20.51;37.93;96373.59;5037230;28;20436;-91
2021/06/01 07:58:34;;;;;;;4.00;3.47;;;;;;;21.31;36.91;96374.22;5036868;28;20523;-91
2021/06/01 08:01:00;;;;;;;4.77;3.10;;;;;;;21.01;37.52;96373.44;5036897;28;20436;-91
2021/06/01 08:03:27;;;;;;;4.23;3.50;;;;;;;20.89;37.88;96367.34;5036243;28;20444;-91
2021/06/01 08:11:58;;;;;;;3.90;2.80;;;;;;;21.21;37.23;96370.97;5025763;28;20499;-91
2021/06/01 08:14:27;;;;;;;6.47;2.70;;;;;;;21.33;37.57;96350.31;5029402;28;20547;-91
2021/06/01 08:16:56;;;;;;;8.13;2.83;;;;;;;21.71;37.22;96358.97;5025405;28;20539;-91
2021/06/01 08:19:30;;;;;;;4.47;3.70;;;;;;;21.96;36.13;96360.84;5024000;28;20483;-92
2021/06/01 08:22:01;;;;;;;7.97;3.47;;;;;;;20.92;37.60;96366.13;5025390;28;20459;-91
2021/06/01 08:24:27;;;;;;;8.03;3.90;;;;;;;20.62;38.69;96356.34;5024850;28;20468;-93
2021/06/01 08:26:55;;;;;;;4.10;3.30;;;;;;;20.92;37.97;96362.66;5025247;28;20523;-92
2021/06/01 08:29:22;;;;;;;4.23;3.10;;;;;;;20.04;38.29;96364.94;5028158;28;20476;-93
2021/06/01 08:31:48;;;;;;;7.70;2.67;;;;;;;19.91;38.47;96355.38;5031366;28;20448;-93
2021/06/01 08:34:15;;;;;;;3.10;2.80;;;;;;;19.94;37.30;96358.91;5028888;28;20535;-92
2021/06/01 08:36:49;;;;;;;4.10;2.80;;;;;;;19.95;36.91;96349.41;5027832;28;20563;-92
2021/06/01 08:39:15;;;;;;;3.50;3.20;;;;;;;19.72;36.91;96356.41;5030133;28;20432;-92
2021/06/01 08:41:43;;;;;;;3.77;2.50;;;;;;;19.66;37.32;96358.09;5030964;28;20444;-93
2021/06/01 08:44:13;;;;;;;4.00;2.40;;;;;;;20.08;36.04;96354.22;5035715;28;20568;-91
2021/06/01 09:39:25;;;;;;;3.23;2.37;;;;;;;19.90;35.56;96323.81;5003806;28;20477;-91
2021/06/01 09:41:52;;;;;;;4.40;2.60;;;;;;;20.11;36.06;96320.81;5011277;28;20451;-92
2021/06/01 09:44:19;;;;;;;2.87;2.67;;;;;;;19.87;35.84;96325.00;5012243;28;20493;-92
2021/06/01 09:46:46;;;;;;;4.13;2.87;;;;;;;19.89;36.19;96316.22;5010943;28;20428;-92
2021/06/01 09:49:22;;;;;;;5.93;3.03;;;;;;;19.84;35.16;96318.00;5011448;28;20500;-91
2021/06/01 09:51:53;;;;;;;4.33;2.67;;;;;;;20.02;35.44;96321.72;5009383;28;20512;-91
2021/06/01 09:54:33;;;;;;;2.67;2.33;;;;;;;20.09;35.03;96320.00;5008995;28;20472;-92
2021/06/01 09:57:00;;;;;;;6.77;3.03;;;;;;;20.02;35.93;96329.22;5009525;28;20425;-93
2021/06/01 09:59:26;;;;;;;3.30;2.60;;;;;;;20.17;35.33;96314.97;5008213;28;20562;-92
2021/06/01 10:01:53;;;;;;;4.03;3.23;;;;;;;20.33;34.76;96309.63;5008386;28;20472;-91
2021/06/01 10:04:23;;;;;;;3.40;3.10;;;;;;;20.56;36.44;96315.63;5009287;28;20473;-91
2021/06/01 10:06:50;;;;;;;3.13;2.73;;;;;;;20.87;34.97;96320.59;5006418;28;20491;-90
2021/06/01 10:09:16;;;;;;;3.73;3.03;;;;;;;21.00;33.28;96306.16;5012796;28;20444;-91
2021/06/01 10:11:56;;;;;;;5.20;3.00;;;;;;;21.21;33.40;96311.31;5016612;28;20452;-93
2021/06/01 10:14:23;;;;;;;3.10;2.37;;;;;;;20.95;33.78;96312.78;5011261;28;20461;-94
2021/06/01 10:16:49;;;;;;;2.80;2.60;;;;;;;20.77;34.77;96309.09;5011636;28;20472;-95
2021/06/01 10:19:15;;;;;;;3.63;2.70;;;;;;;20.88;34.97;96310.31;5011536;28;20988;-93
2021/06/01 10:21:43;;;;;;;2.83;2.53;;;;;;;20.92;34.59;96299.56;5010029;28;20580;-93
2021/06/01 10:24:11;;;;;;;4.30;2.80;;;;;;;20.69;35.03;96300.50;5005474;28;20469;-91
2021/06/01 10:26:37;;;;;;;5.30;3.13;;;;;;;20.84;34.60;96303.31;5005622;28;20480;-92
2021/06/01 10:29:07;;;;;;;3.70;2.90;;;;;;;20.84;32.64;96308.09;5008484;28;20453;-90
2021/06/01 10:31:33;;;;;;;3.17;2.87;;;;;;;21.22;33.28;96298.28;5013318;28;20447;-92
2021/06/01 10:34:01;;;;;;;3.73;3.00;;;;;;;21.26;32.45;96287.53;5013155;28;20565;-92
2021/06/01 10:48:39;;;;;;;5.83;3.07;;;;;;;20.63;35.75;96305.66;5007299;28;20511;-92
2021/06/01 10:50:32;;;;;;;6.40;3.40;;;;;;;21.05;35.55;96279.63;5005384;28;20544;-91
2021/06/01 10:53:08;;;;;;;4.50;2.90;;;;;;;21.12;35.31;96278.59;5005157;28;20472;-91
2021/06/01 10:56:03;;;;;;;4.03;3.63;;;;;;;21.19;35.09;96283.78;5007753;28;20452;-91
2021/06/01 10:58:55;;;;;;;4.67;2.97;;;;;;;20.77;34.33;96273.44;5019636;28;20421;-93
2021/06/01 11:14:29;;;;;;;6.70;2.50;;;;;;;20.82;35.12;96264.13;4985644;28;21034;-93
2021/06/01 11:16:58;;;;;;;4.80;3.47;;;;;;;20.39;35.33;96268.81;5025708;28;20917;-93
2021/06/01 11:19:28;;;;;;;3.43;2.80;;;;;;;21.00;35.00;96275.97;5025247;28;20952;-92
2021/06/01 11:21:59;;;;;;;5.40;3.33;;;;;;;21.22;34.79;96265.34;5026205;28;20460;-92
2021/06/01 11:35:48;;;;;;;8.63;3.20;;;;;;;21.22;34.64;96255.09;5025041;28;20453;-91
2021/06/01 11:38:19;;;;;;;4.97;3.03;;;;;;;21.13;35.32;96255.31;5034637;28;20436;-94
2021/06/01 11:41:18;;;;;;;5.47;4.33;;;;;;;21.07;34.66;96258.47;5029090;28;20439;-90
2021/06/01 11:43:44;;;;;;;4.03;2.90;;;;;;;21.53;34.62;96259.25;5023832;28;20482;-91
2021/06/01 11:46:24;;;;;;;2.90;2.67;;;;;;;21.23;33.75;96261.31;5023786;28;20452;-90
2021/06/01 11:51:41;;;;;;;9.80;3.67;;;;;;;21.20;34.84;96241.28;5022606;28;20428;-90
2021/06/01 11:54:10;;;;;;;4.40;3.27;;;;;;;21.14;33.57;96237.53;5003875;28;20524;-92
2021/06/01 11:57:00;;;;;;;5.37;2.90;;;;;;;21.42;34.28;96238.16;5022338;28;20447;-91
2021/06/01 12:02:23;;;;;;;3.27;2.97;;;;;;;21.50;34.40;96225.50;5020177;28;20408;-90
2021/06/01 12:18:53;;;;;;;3.67;3.37;;;;;;;22.18;33.40;96229.88;5023652;28;20463;-91
2021/06/01 12:21:22;;;;;;;6.83;3.97;;;;;;;22.01;34.05;96225.72;5023899;28;20456;-91
2021/06/01 12:23:53;;;;;;;4.90;3.60;;;;;;;22.05;33.89;96222.44;5026470;28;20472;-93
2021/06/01 12:26:23;;;;;;;2.60;2.40;;;;;;;22.19;34.10;96218.25;5022585;28;20436;-93
2021/06/01 12:32:01;;;;;;;10.00;3.53;;;;;;;22.77;33.73;96219.31;5025945;28;20464;-91
2021/06/01 12:34:36;;;;;;;7.10;3.40;;;;;;;22.46;33.78;96228.31;5022066;28;20531;-93
2021/06/01 12:45:34;;;;;;;6.33;3.17;;;;;;;21.87;34.49;96214.09;5037495;28;20446;-91
2021/06/01 13:19:26;;;;;;;4.00;3.40;;;;;;;23.06;33.23;96179.84;4975506;28;20435;-91
2021/06/01 13:22:46;;;;;;;4.57;3.57;;;;;;;23.06;33.31;96183.31;5024113;28;20462;-91
2021/06/01 13:37:28;;;;;;;8.70;3.33;;;;;;;23.05;31.67;96165.38;5010242;28;20431;-95
2021/06/01 13:46:06;;;;;;;3.80;2.97;;;;;;;22.76;31.75;96155.31;5046296;28;20475;-91
2021/06/01 15:52:07;;;;;;;3.77;3.20;;;;;;;23.38;33.23;96079.16;4984982;28;20478;-92
2021/06/01 16:11:32;;;;;;;6.10;2.93;;;;;;;23.10;31.58;96061.63;5027521;28;20915;-93
2021/06/01 16:14:05;;;;;;;3.63;3.17;;;;;;;23.18;31.91;96065.38;5027074;28;20583;-94
2021/06/01 16:22:21;;;;;;;2.80;2.60;;;;;;;22.99;31.95;96059.84;5024490;28;20463;-92
2021/06/01 16:30:31;;;;;;;3.07;2.33;;;;;;;23.03;31.80;96052.44;5030697;28;20423;-91
2021/06/01 16:33:14;;;;;;;3.93;2.47;;;;;;;23.23;31.75;96047.66;5018866;28;20517;-93
2021/06/01 16:44:41;;;;;;;2.53;2.33;;;;;;;22.95;31.52;96052.16;4978964;28;20458;-91
2021/06/01 17:11:41;;;;;;;4.17;2.83;;;;;;;22.56;32.31;96040.97;5001501;28;20945;-93
2021/06/01 17:14:11;;;;;;;4.90;2.73;;;;;;;22.46;32.68;96041.31;5011044;28;20472;-92
2021/06/01 17:16:42;;;;;;;16.20;2.90;;;;;;;22.56;33.36;96038.94;5024598;28;21040;-93
2021/06/01 17:35:58;;;;;;;4.03;2.60;;;;;;;22.29;33.32;96028.28;5023547;28;20439;-92
2021/06/01 17:38:25;;;;;;;5.77;3.07;;;;;;;22.37;33.38;96036.81;5022549;28;20436;-91
2021/06/01 17:40:55;;;;;;;4.63;2.97;;;;;;;22.20;32.91;96030.00;5022977;28;20520;-92
2021/06/01 17:43:26;;;;;;;2.87;2.60;;;;;;;22.09;33.10;96030.19;5022960;28;20468;-91
2021/06/01 17:45:56;;;;;;;8.00;2.53;;;;;;;22.01;33.34;96027.84;5022177;28;20539;-92
2021/06/01 17:48:47;;;;;;;4.43;2.70;;;;;;;22.01;33.77;96029.88;5021928;28;20487;-91
2021/06/01 17:51:15;;;;;;;2.87;2.50;;;;;;;22.05;33.61;96025.28;5022342;28;20440;-92
2021/06/01 17:53:47;;;;;;;4.40;2.90;;;;;;;21.92;34.01;96025.41;5023012;28;20464;-91
2021/06/01 17:56:20;;;;;;;3.33;2.77;;;;;;;21.76;33.90;96022.66;5023125;28;20491;-91
2021/06/01 17:58:47;;;;;;;7.10;2.53;;;;;;;21.78;33.97;96020.00;5021681;28;21011;-91
2021/06/01 18:01:16;;;;;;;3.00;2.70;;;;;;;21.75;34.31;96019.22;5022054;28;20440;-92
2021/06/01 18:03:46;;;;;;;4.30;2.93;;;;;;;21.78;34.12;96022.75;5025304;28;20968;-93
2021/06/01 18:06:13;;;;;;;4.43;3.67;;;;;;;21.66;34.55;96025.72;5025836;28;20440;-93
2021/06/01 18:08:46;;;;;;;2.90;2.70;;;;;;;21.64;35.02;96016.69;5024752;28;20908;-92
2021/06/01 18:42:28;;;;;;;3.60;3.30;;;;;;;20.91;36.28;96018.28;5024780;28;20497;-93
2021/06/01 19:21:48;;;;;;;7.40;3.23;;;;;;;19.92;38.82;96038.34;5023574;28;20412;-92
2021/06/01 19:24:27;;;;;;;4.67;3.80;;;;;;;19.87;39.05;96033.97;5021673;28;20553;-91
2021/06/01 19:52:10;;;;;;;5.83;3.17;;;;;;;19.17;41.59;96043.47;5035337;28;20495;-92
2021/06/01 19:54:37;;;;;;;6.20;3.60;;;;;;;19.09;41.54;96040.34;5039696;28;20459;-93
2021/06/01 19:57:06;;;;;;;7.43;3.30;;;;;;;19.01;41.59;96039.94;5039663;28;20464;-93